sensor_id;sensor_type;location;lat;lon;timestamp;P1;durP1;ratioP1;P2;durP2;ratioP2
5127;SDS011;2582;48.770;9.190;2024-03-23T00:55:32;3.13;;;2.83;;
5127;SDS011;2582;48.770;9.190;2024-03-23T00:57:57;4.43;;;2.80;;
5127;SDS011;2582;48.770;9.190;2024-03-23T01:00:23;4.17;;;3.30;;
5127;SDS011;2582;48.770;9.190;2024-03-23T01:02:49;3.93;;;3.50;;
5127;SDS011;2582;48.770;9.190;2024-03-23T01:05:14;4.27;;;3.87;;
5127;SDS011;2582;48.770;9.190;2024-03-23T01:07:40;3.90;;;3.20;;
5127;SDS011;2582;48.770;9.190;2024-03-23T01:10:05;3.80;;;2.93;;
5127;SDS011;2582;48.770;9.190;2024-03-23T01:12:31;4.03;;;3.00;;
5127;SDS011;2582;48.770;9.190;2024-03-23T01:14:56;3.87;;;3.40;;
5127;SDS011;2582;48.770;9.190;2024-03-23T01:17:22;3.93;;;3.53;;
5127;SDS011;2582;48.770;9.190;2024-03-23T01:19:47;5.13;;;3.50;;
5127;SDS011;2582;48.770;9.190;2024-03-23T01:22:13;4.83;;;3.50;;
5127;SDS011;2582;48.770;9.190;2024-03-23T01:24:39;3.80;;;3.40;;
5127;SDS011;2582;48.770;9.190;2024-03-23T01:27:04;3.97;;;3.53;;
5127;SDS011;2582;48.770;9.190;2024-03-23T01:29:30;4.03;;;3.20;;
5127;SDS011;2582;48.770;9.190;2024-03-23T01:31:55;3.10;;;2.77;;
5127;SDS011;2582;48.770;9.190;2024-03-23T01:34:21;3.50;;;3.10;;
5127;SDS011;2582;48.770;9.190;2024-03-23T01:36:46;3.30;;;3.10;;
5127;SDS011;2582;48.770;9.190;2024-03-23T01:39:12;4.60;;;3.03;;
5127;SDS011;2582;48.770;9.190;2024-03-23T01:41:39;3.87;;;3.40;;
5127;SDS011;2582;48.770;9.190;2024-03-23T01:44:07;3.60;;;2.70;;
5127;SDS011;2582;48.770;9.190;2024-03-23T01:46:36;3.53;;;2.87;;
5127;SDS011;2582;48.770;9.190;2024-03-23T01:49:03;5.03;;;2.57;;
5127;SDS011;2582;48.770;9.190;2024-03-23T01:51:30;4.17;;;2.70;;
5127;SDS011;2582;48.770;9.190;2024-03-23T01:53:56;3.60;;;3.03;;
5127;SDS011;2582;48.770;9.190;2024-03-23T01:56:22;4.20;;;3.23;;
5127;SDS011;2582;48.770;9.190;2024-03-23T01:58:48;3.20;;;2.60;;
5127;SDS011;2582;48.770;9.190;2024-03-23T02:01:13;3.83;;;3.40;;
5127;SDS011;2582;48.770;9.190;2024-03-23T02:03:39;4.27;;;2.67;;
5127;SDS011;2582;48.770;9.190;2024-03-23T02:06:04;4.33;;;3.03;;
5127;SDS011;2582;48.770;9.190;2024-03-23T02:08:32;2.53;;;2.33;;
5127;SDS011;2582;48.770;9.190;2024-03-23T02:10:58;2.83;;;2.60;;
5127;SDS011;2582;48.770;9.190;2024-03-23T02:13:23;3.27;;;2.67;;
5127;SDS011;2582;48.770;9.190;2024-03-23T02:15:49;4.60;;;3.13;;
5127;SDS011;2582;48.770;9.190;2024-03-23T02:18:15;3.10;;;2.80;;
5127;SDS011;2582;48.770;9.190;2024-03-23T02:20:40;2.93;;;2.63;;
5127;SDS011;2582;48.770;9.190;2024-03-23T02:23:06;3.53;;;3.17;;
5127;SDS011;2582;48.770;9.190;2024-03-23T02:25:38;2.83;;;2.53;;
5127;SDS011;2582;48.770;9.190;2024-03-23T02:28:04;3.60;;;3.23;;
5127;SDS011;2582;48.770;9.190;2024-03-23T02:30:30;4.77;;;3.20;;
5127;SDS011;2582;48.770;9.190;2024-03-23T02:32:55;5.63;;;3.10;;
5127;SDS011;2582;48.770;9.190;2024-03-23T02:35:21;3.47;;;3.17;;
5127;SDS011;2582;48.770;9.190;2024-03-23T02:37:46;3.13;;;2.83;;
5127;SDS011;2582;48.770;9.190;2024-03-23T02:40:15;10.63;;;3.47;;
5127;SDS011;2582;48.770;9.190;2024-03-23T02:42:41;3.73;;;3.37;;
5127;SDS011;2582;48.770;9.190;2024-03-23T02:45:07;3.10;;;2.80;;
5127;SDS011;2582;48.770;9.190;2024-03-23T02:47:32;3.30;;;2.73;;
5127;SDS011;2582;48.770;9.190;2024-03-23T02:49:58;3.50;;;3.00;;
5127;SDS011;2582;48.770;9.190;2024-03-23T02:52:24;4.07;;;2.80;;
5127;SDS011;2582;48.770;9.190;2024-03-23T02:54:49;3.43;;;2.60;;
5127;SDS011;2582;48.770;9.190;2024-03-23T02:57:15;3.87;;;2.83;;
5127;SDS011;2582;48.770;9.190;2024-03-23T02:59:41;4.10;;;3.17;;
5127;SDS011;2582;48.770;9.190;2024-03-23T03:02:06;3.17;;;2.90;;
5127;SDS011;2582;48.770;9.190;2024-03-23T03:04:32;4.60;;;3.43;;
5127;SDS011;2582;48.770;9.190;2024-03-23T03:06:58;3.70;;;2.87;;
5127;SDS011;2582;48.770;9.190;2024-03-23T03:09:23;4.07;;;3.07;;
5127;SDS011;2582;48.770;9.190;2024-03-23T03:11:49;4.33;;;3.23;;
5127;SDS011;2582;48.770;9.190;2024-03-23T03:14:15;3.90;;;2.77;;
5127;SDS011;2582;48.770;9.190;2024-03-23T03:16:40;5.23;;;2.80;;
5127;SDS011;2582;48.770;9.190;2024-03-23T03:19:06;3.30;;;2.80;;
5127;SDS011;2582;48.770;9.190;2024-03-23T03:21:31;4.30;;;3.00;;
5127;SDS011;2582;48.770;9.190;2024-03-23T03:23:57;3.57;;;2.60;;
5127;SDS011;2582;48.770;9.190;2024-03-23T03:26:23;3.43;;;2.90;;
5127;SDS011;2582;48.770;9.190;2024-03-23T03:28:49;3.63;;;3.00;;
5127;SDS011;2582;48.770;9.190;2024-03-23T03:31:15;4.27;;;3.33;;
5127;SDS011;2582;48.770;9.190;2024-03-23T03:33:42;3.50;;;3.20;;
5127;SDS011;2582;48.770;9.190;2024-03-23T03:36:08;2.90;;;2.60;;
5127;SDS011;2582;48.770;9.190;2024-03-23T03:38:33;3.93;;;3.10;;
5127;SDS011;2582;48.770;9.190;2024-03-23T03:41:00;3.87;;;3.30;;
5127;SDS011;2582;48.770;9.190;2024-03-23T03:43:29;2.90;;;2.70;;
5127;SDS011;2582;48.770;9.190;2024-03-23T03:45:55;4.10;;;3.23;;
5127;SDS011;2582;48.770;9.190;2024-03-23T03:48:22;3.57;;;3.20;;
5127;SDS011;2582;48.770;9.190;2024-03-23T03:50:47;4.10;;;2.90;;
5127;SDS011;2582;48.770;9.190;2024-03-23T03:53:13;4.23;;;3.07;;
5127;SDS011;2582;48.770;9.190;2024-03-23T03:55:38;6.27;;;3.17;;
5127;SDS011;2582;48.770;9.190;2024-03-23T03:58:04;3.13;;;2.83;;
5127;SDS011;2582;48.770;9.190;2024-03-23T04:00:30;2.93;;;2.73;;
5127;SDS011;2582;48.770;9.190;2024-03-23T04:02:56;3.13;;;2.70;;
5127;SDS011;2582;48.770;9.190;2024-03-23T04:05:22;4.10;;;3.30;;
5127;SDS011;2582;48.770;9.190;2024-03-23T04:07:48;4.20;;;3.07;;
5127;SDS011;2582;48.770;9.190;2024-03-23T04:10:13;4.03;;;3.73;;
5127;SDS011;2582;48.770;9.190;2024-03-23T04:12:40;3.17;;;2.80;;
5127;SDS011;2582;48.770;9.190;2024-03-23T04:15:06;4.63;;;3.20;;
5127;SDS011;2582;48.770;9.190;2024-03-23T04:17:32;2.97;;;2.73;;
5127;SDS011;2582;48.770;9.190;2024-03-23T04:19:59;5.20;;;3.23;;
5127;SDS011;2582;48.770;9.190;2024-03-23T04:22:26;3.60;;;3.30;;
5127;SDS011;2582;48.770;9.190;2024-03-23T04:24:55;3.70;;;3.40;;
5127;SDS011;2582;48.770;9.190;2024-03-23T04:27:21;4.80;;;3.40;;
5127;SDS011;2582;48.770;9.190;2024-03-23T04:29:48;4.57;;;3.90;;
5127;SDS011;2582;48.770;9.190;2024-03-23T04:32:14;3.50;;;3.03;;
5127;SDS011;2582;48.770;9.190;2024-03-23T04:34:40;7.37;;;3.37;;
5127;SDS011;2582;48.770;9.190;2024-03-23T04:37:06;6.07;;;4.27;;
5127;SDS011;2582;48.770;9.190;2024-03-23T04:39:32;4.53;;;3.97;;
5127;SDS011;2582;48.770;9.190;2024-03-23T04:41:58;4.63;;;3.53;;
5127;SDS011;2582;48.770;9.190;2024-03-23T04:44:23;3.30;;;2.80;;
5127;SDS011;2582;48.770;9.190;2024-03-23T04:46:49;3.30;;;3.00;;
5127;SDS011;2582;48.770;9.190;2024-03-23T04:49:15;4.10;;;3.20;;
5127;SDS011;2582;48.770;9.190;2024-03-23T04:51:40;3.83;;;3.43;;
5127;SDS011;2582;48.770;9.190;2024-03-23T04:54:10;5.80;;;4.60;;
5127;SDS011;2582;48.770;9.190;2024-03-23T04:56:40;5.33;;;4.70;;
5127;SDS011;2582;48.770;9.190;2024-03-23T04:59:05;6.10;;;5.07;;
5127;SDS011;2582;48.770;9.190;2024-03-23T05:01:31;6.07;;;5.20;;
5127;SDS011;2582;48.770;9.190;2024-03-23T05:03:57;7.67;;;6.07;;
5127;SDS011;2582;48.770;9.190;2024-03-23T05:06:23;11.43;;;8.50;;
5127;SDS011;2582;48.770;9.190;2024-03-23T05:08:49;43.53;;;25.27;;
5127;SDS011;2582;48.770;9.190;2024-03-23T05:11:15;27.47;;;16.17;;
5127;SDS011;2582;48.770;9.190;2024-03-23T05:13:42;14.03;;;11.27;;
5127;SDS011;2582;48.770;9.190;2024-03-23T05:16:08;13.70;;;10.93;;
5127;SDS011;2582;48.770;9.190;2024-03-23T05:18:34;15.47;;;10.50;;
5127;SDS011;2582;48.770;9.190;2024-03-23T05:21:00;11.10;;;9.37;;
5127;SDS011;2582;48.770;9.190;2024-03-23T05:23:26;11.50;;;10.23;;
5127;SDS011;2582;48.770;9.190;2024-03-23T05:25:52;13.10;;;11.80;;
5127;SDS011;2582;48.770;9.190;2024-03-23T05:28:18;14.57;;;12.97;;
5127;SDS011;2582;48.770;9.190;2024-03-23T05:30:44;14.07;;;12.53;;
5127;SDS011;2582;48.770;9.190;2024-03-23T05:33:15;15.00;;;13.40;;
5127;SDS011;2582;48.770;9.190;2024-03-23T05:35:40;14.93;;;13.33;;
5127;SDS011;2582;48.770;9.190;2024-03-23T05:38:06;16.33;;;13.40;;
5127;SDS011;2582;48.770;9.190;2024-03-23T05:40:31;15.80;;;13.77;;
5127;SDS011;2582;48.770;9.190;2024-03-23T05:42:57;15.53;;;13.60;;
5127;SDS011;2582;48.770;9.190;2024-03-23T05:45:22;23.53;;;20.40;;
5127;SDS011;2582;48.770;9.190;2024-03-23T05:47:48;34.13;;;30.30;;
5127;SDS011;2582;48.770;9.190;2024-03-23T05:50:14;37.47;;;33.37;;
5127;SDS011;2582;48.770;9.190;2024-03-23T05:52:39;30.00;;;26.77;;
5127;SDS011;2582;48.770;9.190;2024-03-23T05:55:05;42.20;;;36.03;;
5127;SDS011;2582;48.770;9.190;2024-03-23T05:57:31;24.20;;;20.13;;
5127;SDS011;2582;48.770;9.190;2024-03-23T05:59:57;17.53;;;14.20;;
5127;SDS011;2582;48.770;9.190;2024-03-23T06:02:23;25.43;;;22.83;;
5127;SDS011;2582;48.770;9.190;2024-03-23T06:04:49;35.27;;;29.07;;
5127;SDS011;2582;48.770;9.190;2024-03-23T06:07:14;13.37;;;11.17;;
5127;SDS011;2582;48.770;9.190;2024-03-23T06:09:41;7.83;;;7.00;;
5127;SDS011;2582;48.770;9.190;2024-03-23T06:12:07;13.67;;;12.27;;
5127;SDS011;2582;48.770;9.190;2024-03-23T06:14:33;14.27;;;12.77;;
5127;SDS011;2582;48.770;9.190;2024-03-23T06:17:00;12.33;;;11.13;;
5127;SDS011;2582;48.770;9.190;2024-03-23T06:19:26;9.50;;;8.63;;
5127;SDS011;2582;48.770;9.190;2024-03-23T06:21:55;16.30;;;14.60;;
5127;SDS011;2582;48.770;9.190;2024-03-23T06:24:24;42.03;;;35.80;;
5127;SDS011;2582;48.770;9.190;2024-03-23T06:26:49;16.60;;;12.63;;
5127;SDS011;2582;48.770;9.190;2024-03-23T06:29:15;20.80;;;17.43;;
5127;SDS011;2582;48.770;9.190;2024-03-23T06:31:41;10.93;;;9.20;;
5127;SDS011;2582;48.770;9.190;2024-03-23T06:34:06;5.27;;;4.00;;
5127;SDS011;2582;48.770;9.190;2024-03-23T06:36:32;11.37;;;10.27;;
5127;SDS011;2582;48.770;9.190;2024-03-23T06:38:57;3.53;;;3.23;;
5127;SDS011;2582;48.770;9.190;2024-03-23T06:41:23;5.00;;;4.50;;
5127;SDS011;2582;48.770;9.190;2024-03-23T06:43:50;5.87;;;4.97;;
5127;SDS011;2582;48.770;9.190;2024-03-23T06:46:15;5.30;;;4.77;;
5127;SDS011;2582;48.770;9.190;2024-03-23T06:48:41;5.13;;;2.33;;
5127;SDS011;2582;48.770;9.190;2024-03-23T06:51:06;3.30;;;3.00;;
5127;SDS011;2582;48.770;9.190;2024-03-23T06:53:32;2.10;;;1.30;;
5127;SDS011;2582;48.770;9.190;2024-03-23T06:55:58;1.63;;;0.90;;
5127;SDS011;2582;48.770;9.190;2024-03-23T06:58:23;2.70;;;1.80;;
5127;SDS011;2582;48.770;9.190;2024-03-23T07:00:49;1.40;;;1.30;;
5127;SDS011;2582;48.770;9.190;2024-03-23T07:03:18;1.70;;;1.33;;
5127;SDS011;2582;48.770;9.190;2024-03-23T07:05:44;2.03;;;1.70;;
5127;SDS011;2582;48.770;9.190;2024-03-23T07:08:11;3.67;;;2.63;;
5127;SDS011;2582;48.770;9.190;2024-03-23T07:10:40;1.23;;;0.80;;
5127;SDS011;2582;48.770;9.190;2024-03-23T07:13:05;1.43;;;1.30;;
5127;SDS011;2582;48.770;9.190;2024-03-23T07:15:31;2.20;;;2.00;;
5127;SDS011;2582;48.770;9.190;2024-03-23T07:17:56;1.00;;;0.90;;
5127;SDS011;2582;48.770;9.190;2024-03-23T07:20:22;0.87;;;0.70;;
5127;SDS011;2582;48.770;9.190;2024-03-23T07:22:47;1.70;;;0.60;;
5127;SDS011;2582;48.770;9.190;2024-03-23T07:25:13;0.97;;;0.73;;
5127;SDS011;2582;48.770;9.190;2024-03-23T07:27:39;0.90;;;0.60;;
5127;SDS011;2582;48.770;9.190;2024-03-23T07:30:05;0.83;;;0.60;;
5127;SDS011;2582;48.770;9.190;2024-03-23T07:32:31;1.53;;;0.53;;
5127;SDS011;2582;48.770;9.190;2024-03-23T07:34:57;0.80;;;0.57;;
5127;SDS011;2582;48.770;9.190;2024-03-23T07:37:22;0.80;;;0.60;;
5127;SDS011;2582;48.770;9.190;2024-03-23T07:39:48;0.70;;;0.57;;
5127;SDS011;2582;48.770;9.190;2024-03-23T07:42:13;0.80;;;0.60;;
5127;SDS011;2582;48.770;9.190;2024-03-23T07:44:39;0.70;;;0.50;;
5127;SDS011;2582;48.770;9.190;2024-03-23T07:47:05;0.70;;;0.50;;
5127;SDS011;2582;48.770;9.190;2024-03-23T07:49:30;1.00;;;0.57;;
5127;SDS011;2582;48.770;9.190;2024-03-23T07:51:56;0.80;;;0.60;;
5127;SDS011;2582;48.770;9.190;2024-03-23T07:54:21;1.07;;;0.67;;
5127;SDS011;2582;48.770;9.190;2024-03-23T07:56:47;2.33;;;0.60;;
5127;SDS011;2582;48.770;9.190;2024-03-23T07:59:12;0.80;;;0.50;;
5127;SDS011;2582;48.770;9.190;2024-03-23T08:01:38;1.10;;;0.60;;
5127;SDS011;2582;48.770;9.190;2024-03-23T08:04:05;0.90;;;0.60;;
5127;SDS011;2582;48.770;9.190;2024-03-23T08:06:31;0.90;;;0.80;;
5127;SDS011;2582;48.770;9.190;2024-03-23T08:08:57;1.10;;;1.00;;
5127;SDS011;2582;48.770;9.190;2024-03-23T08:11:26;0.90;;;0.80;;
5127;SDS011;2582;48.770;9.190;2024-03-23T08:13:52;1.30;;;1.00;;
5127;SDS011;2582;48.770;9.190;2024-03-23T08:16:18;1.27;;;1.10;;
5127;SDS011;2582;48.770;9.190;2024-03-23T08:18:44;2.20;;;1.10;;
5127;SDS011;2582;48.770;9.190;2024-03-23T08:21:10;1.33;;;1.13;;
5127;SDS011;2582;48.770;9.190;2024-03-23T08:23:36;1.47;;;1.03;;
5127;SDS011;2582;48.770;9.190;2024-03-23T08:26:06;1.53;;;1.10;;
5127;SDS011;2582;48.770;9.190;2024-03-23T08:28:33;1.20;;;0.97;;
5127;SDS011;2582;48.770;9.190;2024-03-23T08:31:03;1.00;;;0.83;;
5127;SDS011;2582;48.770;9.190;2024-03-23T08:33:30;1.30;;;0.90;;
5127;SDS011;2582;48.770;9.190;2024-03-23T08:35:57;1.30;;;1.03;;
5127;SDS011;2582;48.770;9.190;2024-03-23T08:38:27;1.00;;;0.90;;
5127;SDS011;2582;48.770;9.190;2024-03-23T08:41:11;1.33;;;1.23;;
5127;SDS011;2582;48.770;9.190;2024-03-23T08:43:39;1.10;;;0.93;;
5127;SDS011;2582;48.770;9.190;2024-03-23T08:46:15;1.40;;;1.30;;
5127;SDS011;2582;48.770;9.190;2024-03-23T08:48:42;1.77;;;1.10;;
5127;SDS011;2582;48.770;9.190;2024-03-23T08:51:10;1.80;;;1.33;;
5127;SDS011;2582;48.770;9.190;2024-03-23T08:53:37;1.40;;;1.00;;
5127;SDS011;2582;48.770;9.190;2024-03-23T08:56:03;1.43;;;1.33;;
5127;SDS011;2582;48.770;9.190;2024-03-23T08:58:31;1.50;;;1.20;;
5127;SDS011;2582;48.770;9.190;2024-03-23T09:01:08;1.10;;;0.97;;
5127;SDS011;2582;48.770;9.190;2024-03-23T09:03:35;3.70;;;2.00;;
5127;SDS011;2582;48.770;9.190;2024-03-23T09:06:08;1.40;;;1.27;;
5127;SDS011;2582;48.770;9.190;2024-03-23T09:08:34;2.63;;;1.50;;
5127;SDS011;2582;48.770;9.190;2024-03-23T09:11:07;2.53;;;1.60;;
5127;SDS011;2582;48.770;9.190;2024-03-23T09:13:40;1.60;;;1.50;;
5127;SDS011;2582;48.770;9.190;2024-03-23T09:16:14;1.43;;;1.23;;
5127;SDS011;2582;48.770;9.190;2024-03-23T09:18:40;3.00;;;1.70;;
5127;SDS011;2582;48.770;9.190;2024-03-23T09:21:12;3.63;;;2.20;;
5127;SDS011;2582;48.770;9.190;2024-03-23T09:23:39;7.17;;;2.40;;
5127;SDS011;2582;48.770;9.190;2024-03-23T09:26:04;4.60;;;3.20;;
5127;SDS011;2582;48.770;9.190;2024-03-23T09:28:32;2.93;;;2.50;;
5127;SDS011;2582;48.770;9.190;2024-03-23T09:31:07;4.83;;;2.67;;
5127;SDS011;2582;48.770;9.190;2024-03-23T09:33:34;5.23;;;3.43;;
5127;SDS011;2582;48.770;9.190;2024-03-23T09:36:03;7.43;;;4.00;;
5127;SDS011;2582;48.770;9.190;2024-03-23T09:38:30;3.83;;;2.73;;
5127;SDS011;2582;48.770;9.190;2024-03-23T09:40:56;5.60;;;3.30;;
5127;SDS011;2582;48.770;9.190;2024-03-23T09:43:22;5.43;;;3.50;;
5127;SDS011;2582;48.770;9.190;2024-03-23T09:45:48;7.10;;;3.90;;
5127;SDS011;2582;48.770;9.190;2024-03-23T09:48:14;4.10;;;3.00;;
5127;SDS011;2582;48.770;9.190;2024-03-23T09:50:41;4.10;;;2.80;;
5127;SDS011;2582;48.770;9.190;2024-03-23T09:53:09;7.10;;;3.13;;
5127;SDS011;2582;48.770;9.190;2024-03-23T09:55:36;7.80;;;3.23;;
5127;SDS011;2582;48.770;9.190;2024-03-23T09:58:02;4.87;;;3.80;;
5127;SDS011;2582;48.770;9.190;2024-03-23T10:00:30;5.83;;;3.43;;
5127;SDS011;2582;48.770;9.190;2024-03-23T10:02:56;6.70;;;3.70;;
5127;SDS011;2582;48.770;9.190;2024-03-23T10:05:29;8.60;;;4.13;;
5127;SDS011;2582;48.770;9.190;2024-03-23T10:08:17;7.13;;;4.40;;
5127;SDS011;2582;48.770;9.190;2024-03-23T10:10:44;7.20;;;4.30;;
5127;SDS011;2582;48.770;9.190;2024-03-23T10:13:11;6.60;;;4.17;;
5127;SDS011;2582;48.770;9.190;2024-03-23T10:15:51;6.17;;;3.93;;
5127;SDS011;2582;48.770;9.190;2024-03-23T10:18:20;6.43;;;4.13;;
5127;SDS011;2582;48.770;9.190;2024-03-23T10:20:50;8.50;;;3.97;;
5127;SDS011;2582;48.770;9.190;2024-03-23T10:23:34;6.00;;;3.50;;
5127;SDS011;2582;48.770;9.190;2024-03-23T10:26:17;4.53;;;3.20;;
5127;SDS011;2582;48.770;9.190;2024-03-23T10:31:18;6.20;;;3.73;;
5127;SDS011;2582;48.770;9.190;2024-03-23T10:33:45;5.00;;;3.42;;
5127;SDS011;2582;48.770;9.190;2024-03-23T10:36:11;6.20;;;4.20;;
5127;SDS011;2582;48.770;9.190;2024-03-23T10:38:37;5.43;;;3.63;;
5127;SDS011;2582;48.770;9.190;2024-03-23T10:41:08;6.40;;;3.77;;
5127;SDS011;2582;48.770;9.190;2024-03-23T10:43:37;6.90;;;4.07;;
5127;SDS011;2582;48.770;9.190;2024-03-23T10:46:03;4.90;;;3.43;;
5127;SDS011;2582;48.770;9.190;2024-03-23T10:48:30;5.53;;;3.43;;
5127;SDS011;2582;48.770;9.190;2024-03-23T10:50:57;9.83;;;3.93;;
5127;SDS011;2582;48.770;9.190;2024-03-23T10:53:24;10.50;;;4.53;;
5127;SDS011;2582;48.770;9.190;2024-03-23T10:55:52;8.87;;;4.37;;
5127;SDS011;2582;48.770;9.190;2024-03-23T10:58:20;9.33;;;3.93;;
5127;SDS011;2582;48.770;9.190;2024-03-23T11:00:49;4.80;;;4.00;;
5127;SDS011;2582;48.770;9.190;2024-03-23T11:03:34;6.13;;;3.60;;
5127;SDS011;2582;48.770;9.190;2024-03-23T11:06:04;6.70;;;3.90;;
5127;SDS011;2582;48.770;9.190;2024-03-23T11:11:21;5.30;;;2.60;;
5127;SDS011;2582;48.770;9.190;2024-03-23T11:13:51;3.87;;;2.70;;
5127;SDS011;2582;48.770;9.190;2024-03-23T11:16:22;4.70;;;2.10;;
5127;SDS011;2582;48.770;9.190;2024-03-23T11:18:49;2.20;;;2.00;;
5127;SDS011;2582;48.770;9.190;2024-03-23T11:24:19;3.03;;;2.20;;
5127;SDS011;2582;48.770;9.190;2024-03-23T11:26:46;4.63;;;3.17;;
5127;SDS011;2582;48.770;9.190;2024-03-23T11:29:13;6.10;;;2.50;;
5127;SDS011;2582;48.770;9.190;2024-03-23T11:31:48;5.33;;;2.73;;
5127;SDS011;2582;48.770;9.190;2024-03-23T11:34:15;3.10;;;2.40;;
5127;SDS011;2582;48.770;9.190;2024-03-23T11:36:44;4.80;;;2.73;;
5127;SDS011;2582;48.770;9.190;2024-03-23T11:41:49;6.37;;;2.60;;
5127;SDS011;2582;48.770;9.190;2024-03-23T11:44:19;3.57;;;2.50;;
5127;SDS011;2582;48.770;9.190;2024-03-23T11:46:48;3.97;;;2.40;;
5127;SDS011;2582;48.770;9.190;2024-03-23T11:49:24;3.43;;;1.97;;
5127;SDS011;2582;48.770;9.190;2024-03-23T11:51:52;3.23;;;2.50;;
5127;SDS011;2582;48.770;9.190;2024-03-23T11:54:25;3.43;;;2.00;;
5127;SDS011;2582;48.770;9.190;2024-03-23T11:56:58;3.07;;;1.70;;
5127;SDS011;2582;48.770;9.190;2024-03-23T11:59:34;2.90;;;2.10;;
5127;SDS011;2582;48.770;9.190;2024-03-23T12:02:08;4.50;;;2.00;;
5127;SDS011;2582;48.770;9.190;2024-03-23T12:04:36;3.40;;;1.80;;
5127;SDS011;2582;48.770;9.190;2024-03-23T12:07:18;3.07;;;1.73;;
5127;SDS011;2582;48.770;9.190;2024-03-23T12:09:46;2.60;;;1.60;;
5127;SDS011;2582;48.770;9.190;2024-03-23T12:12:16;4.17;;;2.00;;
5127;SDS011;2582;48.770;9.190;2024-03-23T12:14:46;4.10;;;1.70;;
5127;SDS011;2582;48.770;9.190;2024-03-23T12:17:33;3.80;;;2.23;;
5127;SDS011;2582;48.770;9.190;2024-03-23T12:19:59;4.67;;;2.43;;
5127;SDS011;2582;48.770;9.190;2024-03-23T12:22:25;7.97;;;3.03;;
5127;SDS011;2582;48.770;9.190;2024-03-23T12:24:51;4.10;;;1.90;;
5127;SDS011;2582;48.770;9.190;2024-03-23T12:27:17;7.00;;;2.33;;
5127;SDS011;2582;48.770;9.190;2024-03-23T12:29:43;4.07;;;2.20;;
5127;SDS011;2582;48.770;9.190;2024-03-23T12:32:10;4.20;;;2.20;;
5127;SDS011;2582;48.770;9.190;2024-03-23T12:34:36;4.07;;;1.60;;
5127;SDS011;2582;48.770;9.190;2024-03-23T12:37:02;6.00;;;2.33;;
5127;SDS011;2582;48.770;9.190;2024-03-23T12:39:28;6.50;;;2.10;;
5127;SDS011;2582;48.770;9.190;2024-03-23T12:41:54;7.90;;;2.53;;
5127;SDS011;2582;48.770;9.190;2024-03-23T12:44:19;5.53;;;1.87;;
5127;SDS011;2582;48.770;9.190;2024-03-23T12:46:45;5.37;;;2.60;;
5127;SDS011;2582;48.770;9.190;2024-03-23T12:49:11;4.53;;;2.20;;
5127;SDS011;2582;48.770;9.190;2024-03-23T12:51:37;4.07;;;2.30;;
5127;SDS011;2582;48.770;9.190;2024-03-23T12:54:03;5.27;;;2.00;;
5127;SDS011;2582;48.770;9.190;2024-03-23T12:56:29;6.60;;;2.40;;
5127;SDS011;2582;48.770;9.190;2024-03-23T12:58:54;5.83;;;2.27;;
5127;SDS011;2582;48.770;9.190;2024-03-23T13:01:22;3.57;;;2.13;;
5127;SDS011;2582;48.770;9.190;2024-03-23T13:03:50;5.87;;;2.50;;
5127;SDS011;2582;48.770;9.190;2024-03-23T13:06:16;5.90;;;2.57;;
5127;SDS011;2582;48.770;9.190;2024-03-23T13:08:46;2.30;;;1.90;;
5127;SDS011;2582;48.770;9.190;2024-03-23T13:11:12;4.87;;;1.93;;
5127;SDS011;2582;48.770;9.190;2024-03-23T13:13:39;4.53;;;2.30;;
5127;SDS011;2582;48.770;9.190;2024-03-23T13:16:06;6.67;;;3.03;;
5127;SDS011;2582;48.770;9.190;2024-03-23T13:18:32;5.80;;;2.37;;
5127;SDS011;2582;48.770;9.190;2024-03-23T13:20:58;3.67;;;2.70;;
5127;SDS011;2582;48.770;9.190;2024-03-23T13:23:24;6.30;;;2.97;;
5127;SDS011;2582;48.770;9.190;2024-03-23T13:25:50;6.17;;;2.73;;
5127;SDS011;2582;48.770;9.190;2024-03-23T13:28:17;4.20;;;2.60;;
5127;SDS011;2582;48.770;9.190;2024-03-23T13:30:53;4.73;;;3.00;;
5127;SDS011;2582;48.770;9.190;2024-03-23T13:33:20;6.07;;;2.60;;
5127;SDS011;2582;48.770;9.190;2024-03-23T13:35:52;4.60;;;2.53;;
5127;SDS011;2582;48.770;9.190;2024-03-23T13:38:18;5.97;;;2.40;;
5127;SDS011;2582;48.770;9.190;2024-03-23T13:40:51;6.13;;;2.50;;
5127;SDS011;2582;48.770;9.190;2024-03-23T13:43:21;3.53;;;1.60;;
5127;SDS011;2582;48.770;9.190;2024-03-23T13:45:48;3.13;;;1.70;;
5127;SDS011;2582;48.770;9.190;2024-03-23T13:48:15;5.47;;;1.70;;
5127;SDS011;2582;48.770;9.190;2024-03-23T13:50:42;3.33;;;1.70;;
5127;SDS011;2582;48.770;9.190;2024-03-23T13:53:08;2.47;;;1.17;;
5127;SDS011;2582;48.770;9.190;2024-03-23T13:55:34;3.80;;;1.97;;
5127;SDS011;2582;48.770;9.190;2024-03-23T13:57:59;5.93;;;2.10;;
5127;SDS011;2582;48.770;9.190;2024-03-23T14:00:25;2.40;;;1.37;;
5127;SDS011;2582;48.770;9.190;2024-03-23T14:02:50;5.70;;;1.93;;
5127;SDS011;2582;48.770;9.190;2024-03-23T14:05:16;7.10;;;1.77;;
5127;SDS011;2582;48.770;9.190;2024-03-23T14:07:41;1.90;;;1.40;;
5127;SDS011;2582;48.770;9.190;2024-03-23T14:10:07;6.23;;;4.30;;
5127;SDS011;2582;48.770;9.190;2024-03-23T14:12:35;2.90;;;1.90;;
5127;SDS011;2582;48.770;9.190;2024-03-23T14:15:03;4.50;;;1.97;;
5127;SDS011;2582;48.770;9.190;2024-03-23T14:17:30;4.30;;;1.80;;
5127;SDS011;2582;48.770;9.190;2024-03-23T14:19:56;5.20;;;1.90;;
5127;SDS011;2582;48.770;9.190;2024-03-23T14:22:25;7.13;;;2.40;;
5127;SDS011;2582;48.770;9.190;2024-03-23T14:24:54;5.10;;;1.90;;
5127;SDS011;2582;48.770;9.190;2024-03-23T14:27:19;2.57;;;1.70;;
5127;SDS011;2582;48.770;9.190;2024-03-23T14:29:46;2.83;;;1.70;;
5127;SDS011;2582;48.770;9.190;2024-03-23T14:32:12;2.93;;;1.40;;
5127;SDS011;2582;48.770;9.190;2024-03-23T14:34:38;1.80;;;1.13;;
5127;SDS011;2582;48.770;9.190;2024-03-23T14:37:03;2.30;;;1.58;;
5127;SDS011;2582;48.770;9.190;2024-03-23T14:39:30;3.20;;;1.00;;
5127;SDS011;2582;48.770;9.190;2024-03-23T14:41:56;1.70;;;1.10;;
5127;SDS011;2582;48.770;9.190;2024-03-23T14:44:22;6.00;;;2.23;;
5127;SDS011;2582;48.770;9.190;2024-03-23T14:46:47;1.20;;;0.90;;
5127;SDS011;2582;48.770;9.190;2024-03-23T14:49:14;2.13;;;1.20;;
5127;SDS011;2582;48.770;9.190;2024-03-23T14:51:42;2.40;;;1.20;;
5127;SDS011;2582;48.770;9.190;2024-03-23T14:54:08;2.17;;;1.20;;
5127;SDS011;2582;48.770;9.190;2024-03-23T14:56:34;3.20;;;1.40;;
5127;SDS011;2582;48.770;9.190;2024-03-23T14:59:00;2.23;;;1.10;;
5127;SDS011;2582;48.770;9.190;2024-03-23T15:01:25;2.50;;;1.10;;
5127;SDS011;2582;48.770;9.190;2024-03-23T15:03:51;3.37;;;1.30;;
5127;SDS011;2582;48.770;9.190;2024-03-23T15:06:18;3.53;;;1.60;;
5127;SDS011;2582;48.770;9.190;2024-03-23T15:08:44;3.60;;;1.30;;
5127;SDS011;2582;48.770;9.190;2024-03-23T15:11:09;2.43;;;1.20;;
5127;SDS011;2582;48.770;9.190;2024-03-23T15:13:35;4.73;;;1.57;;
5127;SDS011;2582;48.770;9.190;2024-03-23T15:16:02;2.90;;;1.37;;
5127;SDS011;2582;48.770;9.190;2024-03-23T15:18:29;2.50;;;1.40;;
5127;SDS011;2582;48.770;9.190;2024-03-23T15:21:01;2.07;;;0.97;;
5127;SDS011;2582;48.770;9.190;2024-03-23T15:23:28;2.60;;;1.23;;
5127;SDS011;2582;48.770;9.190;2024-03-23T15:25:57;2.20;;;1.30;;
5127;SDS011;2582;48.770;9.190;2024-03-23T15:28:24;3.23;;;1.10;;
5127;SDS011;2582;48.770;9.190;2024-03-23T15:30:52;1.90;;;0.90;;
5127;SDS011;2582;48.770;9.190;2024-03-23T15:33:18;2.70;;;1.20;;
5127;SDS011;2582;48.770;9.190;2024-03-23T15:35:44;2.20;;;1.10;;
5127;SDS011;2582;48.770;9.190;2024-03-23T15:38:09;5.50;;;1.33;;
5127;SDS011;2582;48.770;9.190;2024-03-23T15:40:35;1.20;;;0.70;;
5127;SDS011;2582;48.770;9.190;2024-03-23T15:43:01;1.60;;;1.00;;
5127;SDS011;2582;48.770;9.190;2024-03-23T15:45:26;2.10;;;0.97;;
5127;SDS011;2582;48.770;9.190;2024-03-23T15:47:52;1.97;;;1.10;;
5127;SDS011;2582;48.770;9.190;2024-03-23T15:50:17;2.40;;;1.00;;
5127;SDS011;2582;48.770;9.190;2024-03-23T15:52:43;2.13;;;1.10;;
5127;SDS011;2582;48.770;9.190;2024-03-23T15:55:09;4.30;;;1.00;;
5127;SDS011;2582;48.770;9.190;2024-03-23T15:57:35;1.83;;;1.00;;
5127;SDS011;2582;48.770;9.190;2024-03-23T16:00:01;3.33;;;1.00;;
5127;SDS011;2582;48.770;9.190;2024-03-23T16:02:28;1.97;;;1.00;;
5127;SDS011;2582;48.770;9.190;2024-03-23T16:04:54;2.90;;;1.20;;
5127;SDS011;2582;48.770;9.190;2024-03-23T16:07:20;2.70;;;1.37;;
5127;SDS011;2582;48.770;9.190;2024-03-23T16:09:46;3.17;;;1.30;;
5127;SDS011;2582;48.770;9.190;2024-03-23T16:12:11;2.30;;;1.20;;
5127;SDS011;2582;48.770;9.190;2024-03-23T16:14:37;3.77;;;1.77;;
5127;SDS011;2582;48.770;9.190;2024-03-23T16:17:03;1.43;;;0.90;;